S36 weather

Norman Grier Field
Kent, Washington, United States

Public forecast

Using degrees Fahrenheit for public forecast. Weather courtesy of forecast.io.

Closest aviation weather report (METAR) to Norman Grier Field

Closest report is Renton Municipal Airport, 10.4 nm (19.3 km) NNW. Retrieved 2020/02/17 14:53 UTC (11 minutes ago):

KRNT 171453Z 14004KT 10SM CLR 02/01 A3037 RMK AO2 SLP289 T00170006 51011

Closest aviation forecast (TAF) to Norman Grier Field

Closest forecast is Seattle Tacoma International Airport, 10.7 nm (19.8 km) NW. Retrieved 2020/02/17 12:30 UTC (3 hours ago):

TAF KSEA 171129Z 1712/1818 16008KT P6SM FEW035 BKN070 FM172100 25007KT P6SM SCT050 SCT180 FM180100 03006KT P6SM BKN060 FM181400 05005KT P6SM SKC